sensor_id;sensor_type;location;lat;lon;timestamp;temperature;humidity
17954;DHT22;9102;53.548;9.926;2023-02-28T00:01:19;4.30;99.90
17954;DHT22;9102;53.548;9.926;2023-02-28T00:03:47;4.30;99.90
17954;DHT22;9102;53.548;9.926;2023-02-28T00:06:13;4.20;99.90
17954;DHT22;9102;53.548;9.926;2023-02-28T00:08:40;4.20;99.90
17954;DHT22;9102;53.548;9.926;2023-02-28T00:11:09;4.10;99.90
17954;DHT22;9102;53.548;9.926;2023-02-28T00:13:38;4.10;99.90
17954;DHT22;9102;53.548;9.926;2023-02-28T00:16:08;4.10;99.90
17954;DHT22;9102;53.548;9.926;2023-02-28T00:18:35;4.10;99.90
17954;DHT22;9102;53.548;9.926;2023-02-28T00:21:03;4.00;99.90
17954;DHT22;9102;53.548;9.926;2023-02-28T00:23:30;4.10;99.90
17954;DHT22;9102;53.548;9.926;2023-02-28T00:25:57;4.00;99.90
17954;DHT22;9102;53.548;9.926;2023-02-28T00:28:24;4.10;99.90
17954;DHT22;9102;53.548;9.926;2023-02-28T00:30:51;4.10;99.90
17954;DHT22;9102;53.548;9.926;2023-02-28T00:33:19;4.10;99.90
17954;DHT22;9102;53.548;9.926;2023-02-28T00:35:46;4.10;99.90
17954;DHT22;9102;53.548;9.926;2023-02-28T00:38:14;4.10;99.90
17954;DHT22;9102;53.548;9.926;2023-02-28T00:40:41;4.10;99.90
17954;DHT22;9102;53.548;9.926;2023-02-28T00:43:08;4.10;99.90
17954;DHT22;9102;53.548;9.926;2023-02-28T00:45:35;4.10;99.90
17954;DHT22;9102;53.548;9.926;2023-02-28T00:48:02;4.00;99.90
17954;DHT22;9102;53.548;9.926;2023-02-28T00:50:31;4.10;99.90
17954;DHT22;9102;53.548;9.926;2023-02-28T00:52:57;4.10;99.90
17954;DHT22;9102;53.548;9.926;2023-02-28T00:55:24;4.00;99.90
17954;DHT22;9102;53.548;9.926;2023-02-28T00:57:51;4.00;99.90
17954;DHT22;9102;53.548;9.926;2023-02-28T01:00:18;4.00;99.90
17954;DHT22;9102;53.548;9.926;2023-02-28T01:02:45;4.00;99.90
17954;DHT22;9102;53.548;9.926;2023-02-28T01:05:12;4.00;99.90
17954;DHT22;9102;53.548;9.926;2023-02-28T01:07:40;4.00;99.90
17954;DHT22;9102;53.548;9.926;2023-02-28T01:10:08;4.00;99.90
17954;DHT22;9102;53.548;9.926;2023-02-28T01:12:35;4.00;99.90
17954;DHT22;9102;53.548;9.926;2023-02-28T01:15:02;4.00;99.90
17954;DHT22;9102;53.548;9.926;2023-02-28T01:17:29;4.00;99.90
17954;DHT22;9102;53.548;9.926;2023-02-28T01:19:56;3.90;99.90
17954;DHT22;9102;53.548;9.926;2023-02-28T01:22:23;3.90;99.90
17954;DHT22;9102;53.548;9.926;2023-02-28T01:24:51;3.80;99.90
17954;DHT22;9102;53.548;9.926;2023-02-28T01:27:18;3.80;99.90
17954;DHT22;9102;53.548;9.926;2023-02-28T01:29:45;3.80;99.90
17954;DHT22;9102;53.548;9.926;2023-02-28T01:32:12;3.80;99.90
17954;DHT22;9102;53.548;9.926;2023-02-28T01:34:39;3.70;99.90
17954;DHT22;9102;53.548;9.926;2023-02-28T01:37:06;3.80;99.90
17954;DHT22;9102;53.548;9.926;2023-02-28T01:39:33;3.80;99.90
17954;DHT22;9102;53.548;9.926;2023-02-28T01:42:01;3.80;99.90
17954;DHT22;9102;53.548;9.926;2023-02-28T01:45:00;3.80;99.90
17954;DHT22;9102;53.548;9.926;2023-02-28T01:47:31;3.80;99.90
17954;DHT22;9102;53.548;9.926;2023-02-28T01:50:01;3.80;99.90
17954;DHT22;9102;53.548;9.926;2023-02-28T01:52:29;3.80;99.90
17954;DHT22;9102;53.548;9.926;2023-02-28T01:54:59;3.80;99.90
17954;DHT22;9102;53.548;9.926;2023-02-28T02:00:50;3.70;99.90
17954;DHT22;9102;53.548;9.926;2023-02-28T02:03:19;3.70;99.90
17954;DHT22;9102;53.548;9.926;2023-02-28T02:05:47;3.70;99.90
17954;DHT22;9102;53.548;9.926;2023-02-28T02:08:17;3.80;99.90
17954;DHT22;9102;53.548;9.926;2023-02-28T02:10:45;3.70;99.90
17954;DHT22;9102;53.548;9.926;2023-02-28T02:13:25;3.80;99.90
17954;DHT22;9102;53.548;9.926;2023-02-28T02:16:02;3.70;99.90
17954;DHT22;9102;53.548;9.926;2023-02-28T02:18:37;3.70;99.90
17954;DHT22;9102;53.548;9.926;2023-02-28T02:27:25;3.60;99.90
17954;DHT22;9102;53.548;9.926;2023-02-28T02:30:42;3.70;99.90
17954;DHT22;9102;53.548;9.926;2023-02-28T02:33:24;3.60;99.90
17954;DHT22;9102;53.548;9.926;2023-02-28T02:35:56;3.60;99.90
17954;DHT22;9102;53.548;9.926;2023-02-28T02:38:32;3.60;99.90
17954;DHT22;9102;53.548;9.926;2023-02-28T02:41:05;3.50;99.90
17954;DHT22;9102;53.548;9.926;2023-02-28T02:43:39;3.40;99.90
17954;DHT22;9102;53.548;9.926;2023-02-28T02:46:10;3.40;99.90
17954;DHT22;9102;53.548;9.926;2023-02-28T02:48:40;3.30;99.90
17954;DHT22;9102;53.548;9.926;2023-02-28T02:51:12;3.20;99.90
17954;DHT22;9102;53.548;9.926;2023-02-28T02:53:43;3.10;99.90
17954;DHT22;9102;53.548;9.926;2023-02-28T02:56:12;3.00;99.90
17954;DHT22;9102;53.548;9.926;2023-02-28T02:58:41;3.00;99.90
17954;DHT22;9102;53.548;9.926;2023-02-28T03:01:12;3.00;99.90
17954;DHT22;9102;53.548;9.926;2023-02-28T03:03:41;3.10;99.90
17954;DHT22;9102;53.548;9.926;2023-02-28T03:06:10;3.00;99.90
17954;DHT22;9102;53.548;9.926;2023-02-28T03:08:38;2.90;99.90
17954;DHT22;9102;53.548;9.926;2023-02-28T03:11:06;2.90;99.90
17954;DHT22;9102;53.548;9.926;2023-02-28T03:13:49;2.80;99.90
17954;DHT22;9102;53.548;9.926;2023-02-28T03:16:36;2.80;99.90
17954;DHT22;9102;53.548;9.926;2023-02-28T03:19:22;2.70;99.90
17954;DHT22;9102;53.548;9.926;2023-02-28T03:22:03;2.70;99.90
17954;DHT22;9102;53.548;9.926;2023-02-28T03:24:39;2.60;99.90
17954;DHT22;9102;53.548;9.926;2023-02-28T03:27:11;2.50;99.90
17954;DHT22;9102;53.548;9.926;2023-02-28T03:29:45;2.50;99.90
17954;DHT22;9102;53.548;9.926;2023-02-28T03:32:18;2.50;99.90
17954;DHT22;9102;53.548;9.926;2023-02-28T03:34:49;2.50;99.90
17954;DHT22;9102;53.548;9.926;2023-02-28T03:37:21;2.40;99.90
17954;DHT22;9102;53.548;9.926;2023-02-28T03:39:52;2.40;99.90
17954;DHT22;9102;53.548;9.926;2023-02-28T03:42:22;2.40;99.90
17954;DHT22;9102;53.548;9.926;2023-02-28T03:44:52;2.40;99.90
17954;DHT22;9102;53.548;9.926;2023-02-28T03:47:24;2.30;99.90
17954;DHT22;9102;53.548;9.926;2023-02-28T03:49:54;2.30;99.90
17954;DHT22;9102;53.548;9.926;2023-02-28T03:52:27;2.20;99.90
17954;DHT22;9102;53.548;9.926;2023-02-28T03:54:58;2.20;99.90
17954;DHT22;9102;53.548;9.926;2023-02-28T03:57:36;2.10;99.90
17954;DHT22;9102;53.548;9.926;2023-02-28T04:00:07;2.00;99.90
17954;DHT22;9102;53.548;9.926;2023-02-28T04:02:35;2.10;99.90
17954;DHT22;9102;53.548;9.926;2023-02-28T04:05:02;2.00;99.90
17954;DHT22;9102;53.548;9.926;2023-02-28T04:07:30;2.10;99.90
17954;DHT22;9102;53.548;9.926;2023-02-28T04:09:58;2.00;99.90
17954;DHT22;9102;53.548;9.926;2023-02-28T04:12:25;2.00;99.90
17954;DHT22;9102;53.548;9.926;2023-02-28T04:14:51;1.90;99.90
17954;DHT22;9102;53.548;9.926;2023-02-28T04:17:18;1.90;99.90
17954;DHT22;9102;53.548;9.926;2023-02-28T04:19:45;1.90;99.90
17954;DHT22;9102;53.548;9.926;2023-02-28T04:22:12;1.90;99.90
17954;DHT22;9102;53.548;9.926;2023-02-28T04:24:40;1.80;99.90
17954;DHT22;9102;53.548;9.926;2023-02-28T04:27:08;1.80;99.90
17954;DHT22;9102;53.548;9.926;2023-02-28T04:29:35;1.70;99.90
17954;DHT22;9102;53.548;9.926;2023-02-28T04:32:02;1.70;99.90
17954;DHT22;9102;53.548;9.926;2023-02-28T04:34:31;1.70;99.90
17954;DHT22;9102;53.548;9.926;2023-02-28T04:36:58;1.60;99.90
17954;DHT22;9102;53.548;9.926;2023-02-28T04:39:25;1.60;99.90
17954;DHT22;9102;53.548;9.926;2023-02-28T04:41:54;1.60;99.90
17954;DHT22;9102;53.548;9.926;2023-02-28T04:44:21;1.60;99.90
17954;DHT22;9102;53.548;9.926;2023-02-28T04:46:48;1.60;99.90
17954;DHT22;9102;53.548;9.926;2023-02-28T04:49:15;1.50;99.90
17954;DHT22;9102;53.548;9.926;2023-02-28T04:51:42;1.60;99.90
17954;DHT22;9102;53.548;9.926;2023-02-28T04:54:09;1.50;99.90
17954;DHT22;9102;53.548;9.926;2023-02-28T04:56:36;1.60;99.90
17954;DHT22;9102;53.548;9.926;2023-02-28T04:59:04;1.50;99.90
17954;DHT22;9102;53.548;9.926;2023-02-28T05:01:32;1.60;99.90
17954;DHT22;9102;53.548;9.926;2023-02-28T05:04:03;1.50;99.90
17954;DHT22;9102;53.548;9.926;2023-02-28T05:06:31;1.50;99.90
17954;DHT22;9102;53.548;9.926;2023-02-28T05:08:58;1.50;99.90
17954;DHT22;9102;53.548;9.926;2023-02-28T05:11:27;1.50;99.90
17954;DHT22;9102;53.548;9.926;2023-02-28T05:13:59;1.50;99.90
17954;DHT22;9102;53.548;9.926;2023-02-28T05:16:27;1.50;99.90
17954;DHT22;9102;53.548;9.926;2023-02-28T05:18:54;1.50;99.90
17954;DHT22;9102;53.548;9.926;2023-02-28T05:21:25;1.50;99.90
17954;DHT22;9102;53.548;9.926;2023-02-28T05:23:52;1.50;99.90
17954;DHT22;9102;53.548;9.926;2023-02-28T05:26:20;1.50;99.90
17954;DHT22;9102;53.548;9.926;2023-02-28T05:28:47;1.40;99.90
17954;DHT22;9102;53.548;9.926;2023-02-28T05:31:14;1.40;99.90
17954;DHT22;9102;53.548;9.926;2023-02-28T05:33:42;1.40;99.90
17954;DHT22;9102;53.548;9.926;2023-02-28T05:36:09;1.40;99.90
17954;DHT22;9102;53.548;9.926;2023-02-28T05:38:36;1.30;99.90
17954;DHT22;9102;53.548;9.926;2023-02-28T05:41:06;1.30;99.90
17954;DHT22;9102;53.548;9.926;2023-02-28T05:43:34;1.30;99.90
17954;DHT22;9102;53.548;9.926;2023-02-28T05:46:03;1.30;99.90
17954;DHT22;9102;53.548;9.926;2023-02-28T05:48:31;1.30;99.90
17954;DHT22;9102;53.548;9.926;2023-02-28T05:50:59;1.40;99.90
17954;DHT22;9102;53.548;9.926;2023-02-28T05:53:35;1.40;99.90
17954;DHT22;9102;53.548;9.926;2023-02-28T05:56:02;1.30;99.90
17954;DHT22;9102;53.548;9.926;2023-02-28T05:58:29;1.30;99.90
17954;DHT22;9102;53.548;9.926;2023-02-28T06:00:57;1.30;99.90
17954;DHT22;9102;53.548;9.926;2023-02-28T06:03:24;1.30;99.90
17954;DHT22;9102;53.548;9.926;2023-02-28T06:05:51;1.30;99.90
17954;DHT22;9102;53.548;9.926;2023-02-28T06:08:19;1.30;99.90
17954;DHT22;9102;53.548;9.926;2023-02-28T06:10:46;1.20;99.90
17954;DHT22;9102;53.548;9.926;2023-02-28T06:13:13;1.20;99.90
17954;DHT22;9102;53.548;9.926;2023-02-28T06:15:40;1.30;99.90
17954;DHT22;9102;53.548;9.926;2023-02-28T06:18:07;1.20;99.90
17954;DHT22;9102;53.548;9.926;2023-02-28T06:20:34;1.20;99.90
17954;DHT22;9102;53.548;9.926;2023-02-28T06:23:01;1.20;99.90
17954;DHT22;9102;53.548;9.926;2023-02-28T06:25:29;1.20;99.90
17954;DHT22;9102;53.548;9.926;2023-02-28T06:27:56;1.20;99.90
17954;DHT22;9102;53.548;9.926;2023-02-28T06:30:24;1.20;99.90
17954;DHT22;9102;53.548;9.926;2023-02-28T06:32:52;1.30;99.90
17954;DHT22;9102;53.548;9.926;2023-02-28T06:35:19;1.30;99.90
17954;DHT22;9102;53.548;9.926;2023-02-28T06:37:46;1.30;99.90
17954;DHT22;9102;53.548;9.926;2023-02-28T06:40:14;1.30;99.90
17954;DHT22;9102;53.548;9.926;2023-02-28T06:42:42;1.30;99.90
17954;DHT22;9102;53.548;9.926;2023-02-28T06:45:10;1.30;99.90
17954;DHT22;9102;53.548;9.926;2023-02-28T06:47:38;1.30;99.90
17954;DHT22;9102;53.548;9.926;2023-02-28T06:50:06;1.30;99.90
17954;DHT22;9102;53.548;9.926;2023-02-28T06:52:33;1.40;99.90
17954;DHT22;9102;53.548;9.926;2023-02-28T06:55:02;1.40;99.90
17954;DHT22;9102;53.548;9.926;2023-02-28T06:57:29;1.40;99.90
17954;DHT22;9102;53.548;9.926;2023-02-28T06:59:58;1.50;99.90
17954;DHT22;9102;53.548;9.926;2023-02-28T07:02:25;1.50;99.90
17954;DHT22;9102;53.548;9.926;2023-02-28T07:04:52;1.50;99.90
17954;DHT22;9102;53.548;9.926;2023-02-28T07:07:19;1.60;99.90
17954;DHT22;9102;53.548;9.926;2023-02-28T07:09:46;1.60;99.90
17954;DHT22;9102;53.548;9.926;2023-02-28T07:12:13;1.70;99.90
17954;DHT22;9102;53.548;9.926;2023-02-28T07:14:40;1.70;99.90
17954;DHT22;9102;53.548;9.926;2023-02-28T07:17:09;1.70;99.90
17954;DHT22;9102;53.548;9.926;2023-02-28T07:19:37;1.80;99.90
17954;DHT22;9102;53.548;9.926;2023-02-28T07:22:05;1.80;99.90
17954;DHT22;9102;53.548;9.926;2023-02-28T07:24:31;1.80;99.90
17954;DHT22;9102;53.548;9.926;2023-02-28T07:26:58;1.80;99.90
17954;DHT22;9102;53.548;9.926;2023-02-28T07:29:26;1.90;99.90
17954;DHT22;9102;53.548;9.926;2023-02-28T07:31:53;2.00;99.90
17954;DHT22;9102;53.548;9.926;2023-02-28T07:34:21;2.10;99.90
17954;DHT22;9102;53.548;9.926;2023-02-28T07:36:48;2.10;99.90
17954;DHT22;9102;53.548;9.926;2023-02-28T07:39:19;2.10;99.90
17954;DHT22;9102;53.548;9.926;2023-02-28T07:41:46;2.20;99.90
17954;DHT22;9102;53.548;9.926;2023-02-28T07:44:13;2.20;99.90
17954;DHT22;9102;53.548;9.926;2023-02-28T07:46:40;2.30;99.90
17954;DHT22;9102;53.548;9.926;2023-02-28T07:49:06;2.40;99.90
17954;DHT22;9102;53.548;9.926;2023-02-28T07:51:35;2.40;99.90
17954;DHT22;9102;53.548;9.926;2023-02-28T07:54:02;2.50;99.90
17954;DHT22;9102;53.548;9.926;2023-02-28T07:56:29;2.50;99.90
17954;DHT22;9102;53.548;9.926;2023-02-28T07:58:56;2.60;99.90
17954;DHT22;9102;53.548;9.926;2023-02-28T08:01:23;2.60;99.90
17954;DHT22;9102;53.548;9.926;2023-02-28T08:03:50;2.70;99.90
17954;DHT22;9102;53.548;9.926;2023-02-28T08:06:18;2.80;99.90
17954;DHT22;9102;53.548;9.926;2023-02-28T08:08:47;2.90;99.90
17954;DHT22;9102;53.548;9.926;2023-02-28T08:11:14;3.00;99.90
17954;DHT22;9102;53.548;9.926;2023-02-28T08:13:41;3.10;99.90
17954;DHT22;9102;53.548;9.926;2023-02-28T08:16:10;3.10;99.90
17954;DHT22;9102;53.548;9.926;2023-02-28T08:18:37;3.20;99.90
17954;DHT22;9102;53.548;9.926;2023-02-28T08:21:07;3.20;99.90
17954;DHT22;9102;53.548;9.926;2023-02-28T08:23:34;3.30;99.90
17954;DHT22;9102;53.548;9.926;2023-02-28T08:26:03;3.30;99.90
17954;DHT22;9102;53.548;9.926;2023-02-28T08:28:30;3.30;99.90
17954;DHT22;9102;53.548;9.926;2023-02-28T08:30:57;3.40;99.90
17954;DHT22;9102;53.548;9.926;2023-02-28T08:33:25;3.40;99.90
17954;DHT22;9102;53.548;9.926;2023-02-28T08:35:53;3.40;99.90
17954;DHT22;9102;53.548;9.926;2023-02-28T08:38:20;3.50;99.90
17954;DHT22;9102;53.548;9.926;2023-02-28T08:40:47;3.60;99.90
17954;DHT22;9102;53.548;9.926;2023-02-28T08:43:15;3.60;99.90
17954;DHT22;9102;53.548;9.926;2023-02-28T08:45:42;3.70;99.90
17954;DHT22;9102;53.548;9.926;2023-02-28T08:48:09;3.70;99.90
17954;DHT22;9102;53.548;9.926;2023-02-28T08:50:36;3.70;99.90
17954;DHT22;9102;53.548;9.926;2023-02-28T08:53:02;3.70;99.90
17954;DHT22;9102;53.548;9.926;2023-02-28T08:55:29;3.70;99.90
17954;DHT22;9102;53.548;9.926;2023-02-28T08:57:56;3.90;99.90
17954;DHT22;9102;53.548;9.926;2023-02-28T09:00:25;4.00;99.90
17954;DHT22;9102;53.548;9.926;2023-02-28T09:02:52;4.00;99.90
17954;DHT22;9102;53.548;9.926;2023-02-28T09:05:20;4.10;99.90
17954;DHT22;9102;53.548;9.926;2023-02-28T09:07:46;4.20;99.90
17954;DHT22;9102;53.548;9.926;2023-02-28T09:10:13;4.30;99.90
17954;DHT22;9102;53.548;9.926;2023-02-28T09:12:40;4.30;99.90
17954;DHT22;9102;53.548;9.926;2023-02-28T09:15:08;4.30;99.90
17954;DHT22;9102;53.548;9.926;2023-02-28T09:17:36;4.40;99.90
17954;DHT22;9102;53.548;9.926;2023-02-28T09:20:04;4.40;99.90
17954;DHT22;9102;53.548;9.926;2023-02-28T09:22:31;4.50;99.90
17954;DHT22;9102;53.548;9.926;2023-02-28T09:24:58;4.60;99.90
17954;DHT22;9102;53.548;9.926;2023-02-28T09:27:25;4.60;99.90
17954;DHT22;9102;53.548;9.926;2023-02-28T09:29:52;4.70;99.90
17954;DHT22;9102;53.548;9.926;2023-02-28T09:32:18;4.80;99.90
17954;DHT22;9102;53.548;9.926;2023-02-28T09:34:46;4.80;99.90
17954;DHT22;9102;53.548;9.926;2023-02-28T09:37:13;4.90;99.90
17954;DHT22;9102;53.548;9.926;2023-02-28T09:39:40;4.90;99.90
17954;DHT22;9102;53.548;9.926;2023-02-28T09:42:18;5.10;99.90
17954;DHT22;9102;53.548;9.926;2023-02-28T09:44:47;5.10;99.90
17954;DHT22;9102;53.548;9.926;2023-02-28T09:47:21;5.10;99.90
17954;DHT22;9102;53.548;9.926;2023-02-28T09:49:55;5.20;99.90
17954;DHT22;9102;53.548;9.926;2023-02-28T09:52:29;5.20;99.90
17954;DHT22;9102;53.548;9.926;2023-02-28T09:54:58;5.30;99.90
17954;DHT22;9102;53.548;9.926;2023-02-28T09:57:32;5.30;99.90
17954;DHT22;9102;53.548;9.926;2023-02-28T10:00:07;5.40;99.90
17954;DHT22;9102;53.548;9.926;2023-02-28T10:03:06;5.40;99.90
17954;DHT22;9102;53.548;9.926;2023-02-28T10:09:02;5.60;99.90
17954;DHT22;9102;53.548;9.926;2023-02-28T10:11:32;5.70;99.90
17954;DHT22;9102;53.548;9.926;2023-02-28T10:14:02;5.80;99.90
17954;DHT22;9102;53.548;9.926;2023-02-28T10:16:34;6.00;99.90
17954;DHT22;9102;53.548;9.926;2023-02-28T10:19:04;6.00;99.90
17954;DHT22;9102;53.548;9.926;2023-02-28T10:21:36;6.20;99.90
17954;DHT22;9102;53.548;9.926;2023-02-28T10:24:14;6.10;99.90
17954;DHT22;9102;53.548;9.926;2023-02-28T10:26:45;6.10;99.90
17954;DHT22;9102;53.548;9.926;2023-02-28T10:29:14;5.90;99.90
17954;DHT22;9102;53.548;9.926;2023-02-28T10:31:41;5.90;99.90
17954;DHT22;9102;53.548;9.926;2023-02-28T10:34:12;5.90;99.90
17954;DHT22;9102;53.548;9.926;2023-02-28T10:36:39;6.00;99.90
17954;DHT22;9102;53.548;9.926;2023-02-28T10:39:40;6.10;99.90
17954;DHT22;9102;53.548;9.926;2023-02-28T10:42:20;6.20;99.90
17954;DHT22;9102;53.548;9.926;2023-02-28T10:44:47;6.20;99.90
17954;DHT22;9102;53.548;9.926;2023-02-28T10:47:16;6.20;99.90
17954;DHT22;9102;53.548;9.926;2023-02-28T10:49:47;6.30;99.90
17954;DHT22;9102;53.548;9.926;2023-02-28T10:52:33;6.40;99.90
17954;DHT22;9102;53.548;9.926;2023-02-28T10:55:22;6.50;99.90
17954;DHT22;9102;53.548;9.926;2023-02-28T10:57:50;6.50;99.90
17954;DHT22;9102;53.548;9.926;2023-02-28T11:00:20;6.50;99.90
17954;DHT22;9102;53.548;9.926;2023-02-28T11:02:48;6.80;99.90
17954;DHT22;9102;53.548;9.926;2023-02-28T11:05:26;7.00;99.90
17954;DHT22;9102;53.548;9.926;2023-02-28T11:07:54;7.40;99.90
17954;DHT22;9102;53.548;9.926;2023-02-28T11:10:26;7.60;99.90
17954;DHT22;9102;53.548;9.926;2023-02-28T11:12:55;7.50;99.90
17954;DHT22;9102;53.548;9.926;2023-02-28T11:15:24;7.50;99.90
17954;DHT22;9102;53.548;9.926;2023-02-28T11:17:57;7.50;99.90
17954;DHT22;9102;53.548;9.926;2023-02-28T11:20:27;7.30;99.90
17954;DHT22;9102;53.548;9.926;2023-02-28T11:22:55;7.20;99.90
17954;DHT22;9102;53.548;9.926;2023-02-28T11:25:26;7.50;99.90
17954;DHT22;9102;53.548;9.926;2023-02-28T11:27:57;7.90;99.90
17954;DHT22;9102;53.548;9.926;2023-02-28T11:30:29;8.20;98.40
17954;DHT22;9102;53.548;9.926;2023-02-28T11:32:57;8.60;97.70
17954;DHT22;9102;53.548;9.926;2023-02-28T11:35:27;8.60;96.60
17954;DHT22;9102;53.548;9.926;2023-02-28T11:37:55;8.50;96.10
17954;DHT22;9102;53.548;9.926;2023-02-28T11:40:31;8.30;95.90
17954;DHT22;9102;53.548;9.926;2023-02-28T11:43:09;7.80;95.50
17954;DHT22;9102;53.548;9.926;2023-02-28T11:45:49;7.70;94.80
17954;DHT22;9102;53.548;9.926;2023-02-28T11:48:21;7.70;95.00
17954;DHT22;9102;53.548;9.926;2023-02-28T11:50:57;7.50;95.40
17954;DHT22;9102;53.548;9.926;2023-02-28T11:53:40;7.80;95.20
17954;DHT22;9102;53.548;9.926;2023-02-28T11:56:16;8.50;94.10
17954;DHT22;9102;53.548;9.926;2023-02-28T11:58:55;8.80;92.60
17954;DHT22;9102;53.548;9.926;2023-02-28T12:01:43;8.80;92.20
17954;DHT22;9102;53.548;9.926;2023-02-28T12:04:25;8.60;91.50
17954;DHT22;9102;53.548;9.926;2023-02-28T12:07:00;8.30;91.50
17954;DHT22;9102;53.548;9.926;2023-02-28T12:09:44;8.10;91.70
17954;DHT22;9102;53.548;9.926;2023-02-28T12:12:23;8.00;91.90
17954;DHT22;9102;53.548;9.926;2023-02-28T12:15:17;7.90;92.00
17954;DHT22;9102;53.548;9.926;2023-02-28T12:17:58;7.90;92.30
17954;DHT22;9102;53.548;9.926;2023-02-28T12:20:34;7.80;92.30
17954;DHT22;9102;53.548;9.926;2023-02-28T12:23:30;8.00;92.10
17954;DHT22;9102;53.548;9.926;2023-02-28T12:26:09;8.10;92.10
17954;DHT22;9102;53.548;9.926;2023-02-28T12:28:44;8.10;91.70
17954;DHT22;9102;53.548;9.926;2023-02-28T12:31:17;8.10;91.80
17954;DHT22;9102;53.548;9.926;2023-02-28T12:33:47;7.90;91.40
17954;DHT22;9102;53.548;9.926;2023-02-28T12:36:17;7.80;91.50
17954;DHT22;9102;53.548;9.926;2023-02-28T12:38:50;7.80;91.90
17954;DHT22;9102;53.548;9.926;2023-02-28T12:41:19;7.80;91.90
17954;DHT22;9102;53.548;9.926;2023-02-28T12:43:55;7.80;91.60
17954;DHT22;9102;53.548;9.926;2023-02-28T12:46:29;7.80;91.70
17954;DHT22;9102;53.548;9.926;2023-02-28T12:48:57;7.70;91.90
17954;DHT22;9102;53.548;9.926;2023-02-28T12:51:26;7.80;91.70
17954;DHT22;9102;53.548;9.926;2023-02-28T12:54:00;7.80;91.20
17954;DHT22;9102;53.548;9.926;2023-02-28T12:56:38;7.70;91.70
17954;DHT22;9102;53.548;9.926;2023-02-28T12:59:19;7.50;91.20
17954;DHT22;9102;53.548;9.926;2023-02-28T13:04:51;7.40;91.60
17954;DHT22;9102;53.548;9.926;2023-02-28T13:07:40;7.50;91.70
17954;DHT22;9102;53.548;9.926;2023-02-28T13:10:16;7.60;91.90
17954;DHT22;9102;53.548;9.926;2023-02-28T13:12:48;7.70;92.20
17954;DHT22;9102;53.548;9.926;2023-02-28T13:15:19;7.60;92.30
17954;DHT22;9102;53.548;9.926;2023-02-28T13:17:50;7.70;92.60
17954;DHT22;9102;53.548;9.926;2023-02-28T13:20:19;7.50;92.00
17954;DHT22;9102;53.548;9.926;2023-02-28T13:22:48;7.40;92.20
17954;DHT22;9102;53.548;9.926;2023-02-28T13:34:41;7.70;92.30
17954;DHT22;9102;53.548;9.926;2023-02-28T13:37:42;7.70;91.70
17954;DHT22;9102;53.548;9.926;2023-02-28T13:40:30;7.50;91.70
17954;DHT22;9102;53.548;9.926;2023-02-28T13:43:02;7.50;92.00
17954;DHT22;9102;53.548;9.926;2023-02-28T13:45:29;7.60;92.40
17954;DHT22;9102;53.548;9.926;2023-02-28T13:48:04;7.50;91.70
17954;DHT22;9102;53.548;9.926;2023-02-28T13:50:34;7.50;92.10
17954;DHT22;9102;53.548;9.926;2023-02-28T13:53:33;7.50;92.10
17954;DHT22;9102;53.548;9.926;2023-02-28T13:56:07;7.60;91.90
17954;DHT22;9102;53.548;9.926;2023-02-28T13:58:43;7.60;92.10
17954;DHT22;9102;53.548;9.926;2023-02-28T14:01:28;7.60;92.00
17954;DHT22;9102;53.548;9.926;2023-02-28T14:04:14;7.70;91.80
17954;DHT22;9102;53.548;9.926;2023-02-28T14:06:49;7.60;91.50
17954;DHT22;9102;53.548;9.926;2023-02-28T14:09:21;7.50;91.80
17954;DHT22;9102;53.548;9.926;2023-02-28T14:11:50;7.60;91.80
17954;DHT22;9102;53.548;9.926;2023-02-28T14:14:54;7.50;91.40
17954;DHT22;9102;53.548;9.926;2023-02-28T14:17:22;7.50;91.50
17954;DHT22;9102;53.548;9.926;2023-02-28T14:19:51;7.60;91.70
17954;DHT22;9102;53.548;9.926;2023-02-28T14:22:39;7.60;91.00
17954;DHT22;9102;53.548;9.926;2023-02-28T14:25:18;7.60;90.60
17954;DHT22;9102;53.548;9.926;2023-02-28T14:27:58;7.60;90.30
17954;DHT22;9102;53.548;9.926;2023-02-28T14:30:47;7.50;90.40
17954;DHT22;9102;53.548;9.926;2023-02-28T14:33:23;7.40;90.50
17954;DHT22;9102;53.548;9.926;2023-02-28T14:36:09;7.30;91.00
17954;DHT22;9102;53.548;9.926;2023-02-28T14:38:41;7.40;91.00
17954;DHT22;9102;53.548;9.926;2023-02-28T14:41:16;7.30;91.30
17954;DHT22;9102;53.548;9.926;2023-02-28T14:43:53;7.20;91.50
17954;DHT22;9102;53.548;9.926;2023-02-28T14:46:22;7.20;91.70
17954;DHT22;9102;53.548;9.926;2023-02-28T14:48:50;7.20;91.30
17954;DHT22;9102;53.548;9.926;2023-02-28T14:51:23;7.20;91.50
17954;DHT22;9102;53.548;9.926;2023-02-28T14:53:52;7.20;91.30
17954;DHT22;9102;53.548;9.926;2023-02-28T14:56:26;7.20;91.60
17954;DHT22;9102;53.548;9.926;2023-02-28T14:58:54;7.20;92.00
17954;DHT22;9102;53.548;9.926;2023-02-28T15:01:23;7.10;91.90
17954;DHT22;9102;53.548;9.926;2023-02-28T15:03:59;7.10;91.90
17954;DHT22;9102;53.548;9.926;2023-02-28T15:06:28;7.20;92.10
17954;DHT22;9102;53.548;9.926;2023-02-28T15:09:10;7.10;92.30
17954;DHT22;9102;53.548;9.926;2023-02-28T15:11:38;7.00;92.70
17954;DHT22;9102;53.548;9.926;2023-02-28T15:14:06;7.00;92.90
17954;DHT22;9102;53.548;9.926;2023-02-28T15:16:35;7.00;93.10
17954;DHT22;9102;53.548;9.926;2023-02-28T15:19:06;7.00;93.30
17954;DHT22;9102;53.548;9.926;2023-02-28T15:21:36;6.90;93.50
17954;DHT22;9102;53.548;9.926;2023-02-28T15:24:06;6.90;93.40
17954;DHT22;9102;53.548;9.926;2023-02-28T15:26:38;6.90;93.50
17954;DHT22;9102;53.548;9.926;2023-02-28T15:29:11;6.90;93.50
17954;DHT22;9102;53.548;9.926;2023-02-28T15:31:41;6.90;93.40
17954;DHT22;9102;53.548;9.926;2023-02-28T15:34:18;6.90;93.50
17954;DHT22;9102;53.548;9.926;2023-02-28T15:36:47;6.90;93.40
17954;DHT22;9102;53.548;9.926;2023-02-28T15:39:20;6.90;93.60
17954;DHT22;9102;53.548;9.926;2023-02-28T15:41:47;6.80;93.70
17954;DHT22;9102;53.548;9.926;2023-02-28T15:44:23;6.80;94.00
17954;DHT22;9102;53.548;9.926;2023-02-28T15:46:58;6.80;94.40
17954;DHT22;9102;53.548;9.926;2023-02-28T15:49:27;6.70;94.90
17954;DHT22;9102;53.548;9.926;2023-02-28T15:51:58;6.60;95.40
17954;DHT22;9102;53.548;9.926;2023-02-28T15:54:29;6.60;95.80
17954;DHT22;9102;53.548;9.926;2023-02-28T15:57:00;6.60;95.70
17954;DHT22;9102;53.548;9.926;2023-02-28T15:59:30;6.60;95.50
17954;DHT22;9102;53.548;9.926;2023-02-28T16:02:18;6.50;95.80
17954;DHT22;9102;53.548;9.926;2023-02-28T16:05:00;6.40;96.80
17954;DHT22;9102;53.548;9.926;2023-02-28T16:07:29;6.30;97.60
17954;DHT22;9102;53.548;9.926;2023-02-28T16:09:56;6.30;98.20
17954;DHT22;9102;53.548;9.926;2023-02-28T16:12:27;6.20;98.00
17954;DHT22;9102;53.548;9.926;2023-02-28T16:14:55;6.10;99.00
17954;DHT22;9102;53.548;9.926;2023-02-28T16:17:24;6.10;98.70
17954;DHT22;9102;53.548;9.926;2023-02-28T16:19:52;6.10;98.40
17954;DHT22;9102;53.548;9.926;2023-02-28T16:22:18;6.00;98.90
17954;DHT22;9102;53.548;9.926;2023-02-28T16:24:47;6.00;99.20
17954;DHT22;9102;53.548;9.926;2023-02-28T16:27:17;6.00;99.90
17954;DHT22;9102;53.548;9.926;2023-02-28T16:29:45;5.90;99.90
17954;DHT22;9102;53.548;9.926;2023-02-28T16:32:14;5.80;99.90
17954;DHT22;9102;53.548;9.926;2023-02-28T16:34:41;5.80;99.90
17954;DHT22;9102;53.548;9.926;2023-02-28T16:37:11;5.70;99.90
17954;DHT22;9102;53.548;9.926;2023-02-28T16:39:39;5.60;99.90
17954;DHT22;9102;53.548;9.926;2023-02-28T16:42:10;5.60;99.90
17954;DHT22;9102;53.548;9.926;2023-02-28T16:44:40;5.60;99.90
17954;DHT22;9102;53.548;9.926;2023-02-28T16:47:09;5.50;99.90
17954;DHT22;9102;53.548;9.926;2023-02-28T16:49:36;5.40;99.90
17954;DHT22;9102;53.548;9.926;2023-02-28T16:52:03;5.30;99.90